createdAt,value
2017-09-26T00:00:04.572Z,16.80
2017-09-26T00:02:31.324Z,15.48
2017-09-26T00:04:57.341Z,17.40
2017-09-26T00:07:23.342Z,18.47
2017-09-26T00:09:50.100Z,15.02
2017-09-26T00:12:16.317Z,18.85
2017-09-26T00:14:43.052Z,19.05
2017-09-26T00:17:09.800Z,18.27
2017-09-26T00:19:35.833Z,16.15
2017-09-26T00:22:01.851Z,16.98
2017-09-26T00:24:27.857Z,19.53
2017-09-26T00:26:54.646Z,17.60
2017-09-26T00:29:20.676Z,16.67
2017-09-26T00:31:46.708Z,20.02
2017-09-26T00:34:13.498Z,16.02
2017-09-26T00:36:39.562Z,17.63
2017-09-26T00:39:05.610Z,17.67
2017-09-26T00:41:32.417Z,18.35
2017-09-26T00:43:58.465Z,18.75
2017-09-26T00:46:25.262Z,18.33
2017-09-26T00:48:51.675Z,16.70
2017-09-26T00:51:17.693Z,18.42
2017-09-26T00:53:43.697Z,13.90
2017-09-26T00:56:10.508Z,16.58
2017-09-26T00:58:36.661Z,14.48
2017-09-26T01:01:03.442Z,14.65
2017-09-26T01:03:29.495Z,18.75
2017-09-26T01:06:01.620Z,17.50
2017-09-26T01:08:27.633Z,18.75
2017-09-26T01:10:53.664Z,18.17
2017-09-26T01:13:19.676Z,16.55
2017-09-26T01:15:45.713Z,16.15
2017-09-26T01:18:11.783Z,15.88
2017-09-26T01:20:38.549Z,17.00
2017-09-26T01:23:04.609Z,17.17
2017-09-26T01:25:30.656Z,17.00
2017-09-26T01:27:56.673Z,18.27
2017-09-26T01:30:22.704Z,16.52
2017-09-26T01:32:48.744Z,16.20
2017-09-26T01:35:14.759Z,16.60
2017-09-26T01:37:41.501Z,18.70
2017-09-26T01:40:08.278Z,17.58
2017-09-26T01:42:34.297Z,18.42
2017-09-26T01:45:00.325Z,19.00
2017-09-26T01:47:26.623Z,15.57
2017-09-26T01:49:52.653Z,17.62
2017-09-26T01:52:18.669Z,18.20
2017-09-26T01:54:44.720Z,19.15
2017-09-26T01:57:21.653Z,17.10
2017-09-26T01:59:49.226Z,16.20
2017-09-26T02:02:15.253Z,14.93
2017-09-26T02:04:41.265Z,17.23
2017-09-26T02:07:07.487Z,16.75
2017-09-26T02:09:33.511Z,17.70
2017-09-26T02:11:59.534Z,19.80
2017-09-26T02:14:25.764Z,17.67
2017-09-26T02:16:51.756Z,17.90
2017-09-26T02:19:17.777Z,19.25
2017-09-26T02:21:44.750Z,16.40
2017-09-26T02:24:10.767Z,19.33
2017-09-26T02:26:36.794Z,17.63
2017-09-26T02:29:02.824Z,16.27
2017-09-26T02:31:28.841Z,20.93
2017-09-26T02:33:54.862Z,17.45
2017-09-26T02:36:20.886Z,18.15
2017-09-26T02:38:46.901Z,16.90
2017-09-26T02:41:12.929Z,20.45
2017-09-26T02:43:38.954Z,18.00
2017-09-26T02:46:04.989Z,18.98
2017-09-26T02:48:31.020Z,20.95
2017-09-26T02:50:57.053Z,18.60
2017-09-26T02:53:23.052Z,18.30
2017-09-26T02:55:49.275Z,17.55
2017-09-26T02:58:15.289Z,20.92
2017-09-26T03:00:41.301Z,18.23
2017-09-26T03:03:07.332Z,17.48
2017-09-26T03:05:33.328Z,19.35
2017-09-26T03:08:00.069Z,21.87
2017-09-26T03:10:26.112Z,21.17
2017-09-26T03:12:52.125Z,21.70
2017-09-26T03:15:18.137Z,21.30
2017-09-26T03:17:44.208Z,22.90
2017-09-26T03:20:10.212Z,20.58
2017-09-26T03:22:36.237Z,24.90
2017-09-26T03:25:02.257Z,23.38
2017-09-26T03:27:28.253Z,23.38
2017-09-26T03:29:54.428Z,22.75
2017-09-26T03:32:20.432Z,28.12
2017-09-26T03:34:46.449Z,22.05
2017-09-26T03:37:12.836Z,26.42
2017-09-26T03:39:38.863Z,25.30
2017-09-26T03:42:04.868Z,24.65
2017-09-26T03:44:31.192Z,26.05
2017-09-26T03:46:57.943Z,26.90
2017-09-26T03:49:24.697Z,25.95
2017-09-26T03:51:50.718Z,26.23
2017-09-26T03:54:16.728Z,27.65
2017-09-26T03:56:42.758Z,25.75
2017-09-26T03:59:08.796Z,27.42
2017-09-26T04:01:34.821Z,29.02
2017-09-26T04:04:00.881Z,27.48
2017-09-26T04:06:26.896Z,24.15
2017-09-26T04:08:52.948Z,26.70
2017-09-26T04:11:19.732Z,26.93
2017-09-26T04:13:45.732Z,31.08
2017-09-26T04:16:11.766Z,29.00
2017-09-26T04:18:44.939Z,28.85
2017-09-26T04:21:10.965Z,30.33
2017-09-26T04:23:36.984Z,30.77
2017-09-26T04:26:03.509Z,24.60
2017-09-26T04:28:29.539Z,26.77
2017-09-26T04:30:55.588Z,25.92
2017-09-26T04:33:21.640Z,25.00
2017-09-26T04:35:47.664Z,29.27
2017-09-26T04:38:13.668Z,30.83
2017-09-26T04:40:40.099Z,30.65
2017-09-26T04:43:06.113Z,26.95
2017-09-26T04:45:32.137Z,29.58
2017-09-26T04:47:58.196Z,28.67
2017-09-26T04:50:24.985Z,30.15
2017-09-26T04:52:50.988Z,28.52
2017-09-26T04:55:17.192Z,30.43
2017-09-26T04:57:43.937Z,26.23
2017-09-26T05:00:09.944Z,29.63
2017-09-26T05:02:36.713Z,31.40
2017-09-26T05:05:02.725Z,33.63
2017-09-26T05:07:28.728Z,30.02
2017-09-26T05:09:55.504Z,33.70
2017-09-26T05:12:21.505Z,31.40
2017-09-26T05:14:47.509Z,33.50
2017-09-26T05:17:13.521Z,30.35
2017-09-26T05:19:40.284Z,30.90
2017-09-26T05:22:06.292Z,34.92
2017-09-26T05:24:33.059Z,33.47
2017-09-26T05:26:59.252Z,32.40
2017-09-26T05:29:25.997Z,31.73
2017-09-26T05:31:52.296Z,32.00
2017-09-26T05:34:18.330Z,37.95
2017-09-26T05:36:45.085Z,33.60
2017-09-26T05:39:11.092Z,34.13
2017-09-26T05:41:37.331Z,31.50
2017-09-26T05:44:04.073Z,30.20
2017-09-26T05:46:30.065Z,31.37
2017-09-26T05:48:56.620Z,33.13
2017-09-26T05:51:23.373Z,32.70
2017-09-26T05:53:49.397Z,33.80
2017-09-26T05:56:15.432Z,35.67
2017-09-26T05:58:41.445Z,34.60
2017-09-26T06:01:07.452Z,33.23
2017-09-26T06:03:33.505Z,36.50
2017-09-26T06:05:59.530Z,34.15
2017-09-26T06:08:25.560Z,37.35
2017-09-26T06:10:51.585Z,37.10
2017-09-26T06:13:17.651Z,38.28
2017-09-26T06:15:44.380Z,34.45
2017-09-26T06:18:10.622Z,38.47
2017-09-26T06:20:36.650Z,33.80
2017-09-26T06:23:02.654Z,34.95
2017-09-26T06:25:29.466Z,34.40
2017-09-26T06:27:55.492Z,32.22
2017-09-26T06:30:21.513Z,37.25
2017-09-26T06:32:47.529Z,38.35
2017-09-26T06:35:13.529Z,36.92
2017-09-26T06:37:39.709Z,36.55
2017-09-26T06:40:06.453Z,41.20
2017-09-26T06:42:33.210Z,37.95
2017-09-26T06:44:59.230Z,38.03
2017-09-26T06:47:25.281Z,36.60
2017-09-26T06:49:51.521Z,37.55
2017-09-26T06:52:17.548Z,38.53
2017-09-26T06:54:43.548Z,39.65
2017-09-26T06:57:09.557Z,38.30
2017-09-26T06:59:35.584Z,41.17
2017-09-26T07:02:01.579Z,37.23
2017-09-26T07:04:27.585Z,36.38
2017-09-26T07:06:53.813Z,37.47
2017-09-26T07:09:20.553Z,41.65
2017-09-26T07:11:46.559Z,37.90
2017-09-26T07:14:13.334Z,38.20
2017-09-26T07:16:39.349Z,39.50
2017-09-26T07:19:05.349Z,40.20
2017-09-26T07:21:32.124Z,38.53
2017-09-26T07:23:58.116Z,37.60
2017-09-26T07:26:24.116Z,37.60
2017-09-26T07:28:50.873Z,38.43
2017-09-26T07:31:16.872Z,39.03
2017-09-26T07:33:42.871Z,41.00
2017-09-26T07:36:08.919Z,38.30
2017-09-26T07:38:35.717Z,41.92
2017-09-26T07:41:01.721Z,42.67
2017-09-26T07:43:27.789Z,39.83
2017-09-26T07:45:53.801Z,41.23
2017-09-26T07:48:19.804Z,43.85
2017-09-26T07:50:45.957Z,39.53
2017-09-26T07:53:11.952Z,42.55
2017-09-26T07:55:37.953Z,43.55
2017-09-26T07:58:03.978Z,45.50
2017-09-26T08:00:31.546Z,41.30
2017-09-26T08:02:57.944Z,45.85
2017-09-26T08:05:24.448Z,44.03
2017-09-26T08:07:51.736Z,44.55
2017-09-26T08:10:17.753Z,42.90
2017-09-26T08:12:43.752Z,45.28
2017-09-26T08:15:10.497Z,44.20
2017-09-26T08:17:37.252Z,45.17
2017-09-26T08:20:03.297Z,45.25
2017-09-26T08:22:29.296Z,46.53
2017-09-26T08:24:55.325Z,46.20
2017-09-26T08:27:21.316Z,46.43
2017-09-26T08:29:48.081Z,47.50
2017-09-26T08:32:14.389Z,44.65
2017-09-26T08:34:40.400Z,46.15
2017-09-26T08:37:07.145Z,44.38
2017-09-26T08:39:34.146Z,46.97
2017-09-26T08:42:00.184Z,45.28
2017-09-26T08:44:26.233Z,45.28
2017-09-26T08:46:53.049Z,42.33
2017-09-26T08:49:19.045Z,45.20
2017-09-26T08:51:45.063Z,47.50
2017-09-26T08:54:11.099Z,48.17
2017-09-26T08:56:37.409Z,46.45
2017-09-26T08:59:03.412Z,43.42
2017-09-26T09:01:29.441Z,47.10
2017-09-26T09:03:55.493Z,43.80
2017-09-26T09:06:21.500Z,45.35
2017-09-26T09:08:47.497Z,47.38
2017-09-26T09:11:13.545Z,49.15
2017-09-26T09:13:46.402Z,51.50
2017-09-26T09:16:12.401Z,48.17
2017-09-26T09:18:38.434Z,48.70
2017-09-26T09:21:04.449Z,47.22
2017-09-26T09:23:31.177Z,45.40
2017-09-26T09:25:57.933Z,45.00
2017-09-26T09:28:23.924Z,46.45
2017-09-26T09:30:50.665Z,46.22
2017-09-26T09:33:17.615Z,48.07
2017-09-26T09:35:44.366Z,46.40
2017-09-26T09:38:10.366Z,50.40
2017-09-26T09:40:37.646Z,46.00
2017-09-26T09:43:03.644Z,47.70
2017-09-26T09:45:30.402Z,48.00
2017-09-26T09:47:56.426Z,47.13
2017-09-26T09:50:22.424Z,47.72
2017-09-26T09:52:49.179Z,49.78
2017-09-26T09:55:15.216Z,48.30
2017-09-26T09:57:41.226Z,48.67
2017-09-26T10:00:07.305Z,52.10
2017-09-26T10:02:33.600Z,49.47
2017-09-26T10:04:59.609Z,46.03
2017-09-26T10:07:25.652Z,47.15
2017-09-26T10:09:51.838Z,47.95
2017-09-26T10:12:17.868Z,48.33
2017-09-26T10:14:43.868Z,48.83
2017-09-26T10:17:10.652Z,47.87
2017-09-26T10:19:36.653Z,46.95
2017-09-26T10:22:02.683Z,47.55
2017-09-26T10:24:29.081Z,46.60
2017-09-26T10:26:55.835Z,50.88
2017-09-26T10:29:21.879Z,48.90
2017-09-26T10:31:47.905Z,56.87
2017-09-26T10:34:13.984Z,51.40
2017-09-26T10:36:40.718Z,49.10
2017-09-26T10:39:07.484Z,50.12
2017-09-26T10:41:33.494Z,52.38
2017-09-26T10:43:59.493Z,52.10
2017-09-26T10:46:26.259Z,51.35
2017-09-26T10:48:52.280Z,54.13
2017-09-26T10:51:18.292Z,52.83
2017-09-26T10:53:44.589Z,53.10
2017-09-26T10:57:02.380Z,49.95
2017-09-26T10:59:28.573Z,49.17
2017-09-26T11:01:55.312Z,48.53
2017-09-26T11:04:22.049Z,46.72
2017-09-26T11:06:48.833Z,46.05
2017-09-26T11:09:14.839Z,46.33
2017-09-26T11:11:40.849Z,44.45
2017-09-26T11:14:06.861Z,50.93
2017-09-26T11:16:32.872Z,47.70
2017-09-26T11:18:59.628Z,45.80
2017-09-26T11:21:25.681Z,44.72
2017-09-26T11:23:51.714Z,40.95
2017-09-26T11:26:17.708Z,43.85
2017-09-26T11:28:43.848Z,42.80
2017-09-26T11:31:09.865Z,45.60
2017-09-26T11:33:35.860Z,40.53
2017-09-26T11:36:02.073Z,42.92
2017-09-26T11:38:28.161Z,39.37
2017-09-26T11:40:54.928Z,40.88
2017-09-26T11:43:21.717Z,48.63
2017-09-26T11:45:47.712Z,42.13
2017-09-26T11:48:13.719Z,47.35
2017-09-26T11:50:40.733Z,40.70
2017-09-26T11:53:07.485Z,43.13
2017-09-26T11:55:34.229Z,40.83
2017-09-26T11:58:01.176Z,39.95
2017-09-26T12:00:27.933Z,41.35
2017-09-26T12:02:53.928Z,39.35
2017-09-26T12:05:20.886Z,38.42
2017-09-26T12:07:46.896Z,40.05
2017-09-26T12:10:13.635Z,39.58
2017-09-26T12:12:40.478Z,37.22
2017-09-26T12:15:06.483Z,39.50
2017-09-26T12:17:33.229Z,37.70
2017-09-26T12:20:00.295Z,37.17
2017-09-26T12:22:26.303Z,39.03
2017-09-26T12:24:53.045Z,36.33
2017-09-26T12:27:19.267Z,35.58
2017-09-26T12:29:46.019Z,40.28
2017-09-26T12:32:12.043Z,36.53
2017-09-26T12:34:38.070Z,36.60
2017-09-26T12:37:04.060Z,37.35
2017-09-26T12:39:30.810Z,35.42
2017-09-26T12:41:56.849Z,34.00
2017-09-26T12:44:22.865Z,34.33
2017-09-26T12:46:48.869Z,35.08
2017-09-26T12:49:15.642Z,35.05
2017-09-26T12:51:41.651Z,36.78
2017-09-26T12:54:07.667Z,35.05
2017-09-26T12:56:33.696Z,35.22
2017-09-26T12:58:59.703Z,36.53
2017-09-26T13:01:25.713Z,35.10
2017-09-26T13:03:52.489Z,38.55
2017-09-26T13:06:18.496Z,35.80
2017-09-26T13:08:44.493Z,33.72
2017-09-26T13:11:11.545Z,32.97
2017-09-26T13:13:37.553Z,33.15
2017-09-26T13:16:04.292Z,37.67
2017-09-26T13:18:31.181Z,33.60
2017-09-26T13:20:57.237Z,30.45
2017-09-26T13:23:24.725Z,32.78
2017-09-26T13:25:50.770Z,33.97
2017-09-26T13:28:16.761Z,32.90
2017-09-26T13:30:42.756Z,32.47
2017-09-26T13:33:09.517Z,33.03
2017-09-26T13:35:36.296Z,30.45
2017-09-26T13:38:02.323Z,33.05
2017-09-26T13:40:28.373Z,33.78
2017-09-26T13:42:56.103Z,34.75
2017-09-26T13:45:22.126Z,31.87
2017-09-26T13:47:48.125Z,29.58
2017-09-26T13:50:14.437Z,31.52
2017-09-26T13:52:40.473Z,33.67
2017-09-26T13:55:06.486Z,34.88
2017-09-26T13:57:32.536Z,38.00
2017-09-26T13:59:58.549Z,37.65
2017-09-26T14:02:24.550Z,39.55
2017-09-26T14:04:50.637Z,36.35
2017-09-26T14:07:17.664Z,36.78
2017-09-26T14:09:43.664Z,45.92
2017-09-26T14:12:09.697Z,52.00
2017-09-26T14:14:35.729Z,72.50
2017-09-26T14:17:01.729Z,78.70
2017-09-26T14:19:27.770Z,46.28
2017-09-26T14:21:53.776Z,44.92
2017-09-26T14:24:19.857Z,38.22
2017-09-26T14:26:45.895Z,33.45
2017-09-26T14:29:11.911Z,31.83
2017-09-26T14:31:37.948Z,34.70
2017-09-26T14:34:03.971Z,32.92
2017-09-26T14:36:29.981Z,35.72
2017-09-26T14:38:56.038Z,32.33
2017-09-26T14:41:22.049Z,33.03
2017-09-26T14:43:48.077Z,30.30
2017-09-26T14:46:14.190Z,34.83
2017-09-26T14:48:40.216Z,32.08
2017-09-26T14:51:06.233Z,32.30
2017-09-26T14:53:32.274Z,32.00
2017-09-26T14:55:58.280Z,36.95
2017-09-26T14:58:24.371Z,33.25
2017-09-26T15:00:50.497Z,32.33
2017-09-26T15:03:16.499Z,30.97
2017-09-26T15:05:43.232Z,32.88
2017-09-26T15:08:10.049Z,33.67
2017-09-26T15:10:36.049Z,33.90
2017-09-26T15:13:02.068Z,36.22
2017-09-26T15:15:28.197Z,32.58
2017-09-26T15:17:54.204Z,46.17
2017-09-26T15:20:20.209Z,68.13
2017-09-26T15:22:46.299Z,129.55
2017-09-26T15:25:20.165Z,61.20
2017-09-26T15:27:46.210Z,51.75
2017-09-26T15:30:12.585Z,51.45
2017-09-26T15:32:38.596Z,45.28
2017-09-26T15:35:04.597Z,39.05
2017-09-26T15:37:31.365Z,38.67
2017-09-26T15:39:57.417Z,38.67
2017-09-26T15:42:23.404Z,39.08
2017-09-26T15:44:49.414Z,36.60
2017-09-26T15:47:16.153Z,37.70
2017-09-26T15:49:42.908Z,40.50
2017-09-26T15:52:09.218Z,39.08
2017-09-26T15:54:36.160Z,37.40
2017-09-26T15:57:02.487Z,39.50
2017-09-26T15:59:29.379Z,41.92
2017-09-26T16:01:55.471Z,40.88
2017-09-26T16:04:21.885Z,36.65
2017-09-26T16:06:48.703Z,37.53
2017-09-26T16:09:14.819Z,38.70
2017-09-26T16:11:40.888Z,41.25
2017-09-26T16:14:06.928Z,41.03
2017-09-26T16:16:32.933Z,41.65
2017-09-26T16:18:58.980Z,39.78
2017-09-26T16:21:24.993Z,42.97
2017-09-26T16:23:51.005Z,39.60
2017-09-26T16:26:17.327Z,47.50
2017-09-26T16:28:43.337Z,42.25
2017-09-26T16:31:09.337Z,45.15
2017-09-26T16:33:36.299Z,41.53
2017-09-26T16:36:02.300Z,44.80
2017-09-26T16:38:29.043Z,75.93
2017-09-26T16:40:55.841Z,40.47
2017-09-26T16:43:21.832Z,38.10
2017-09-26T16:45:47.832Z,34.70
2017-09-26T16:48:13.837Z,34.43
2017-09-26T16:50:39.873Z,36.65
2017-09-26T16:53:06.633Z,32.97
2017-09-26T16:55:32.658Z,33.83
2017-09-26T16:58:06.254Z,37.15
2017-09-26T17:00:32.298Z,34.15
2017-09-26T17:02:58.305Z,42.42
2017-09-26T17:05:24.504Z,35.17
2017-09-26T17:07:50.516Z,36.55
2017-09-26T17:10:17.253Z,35.83
2017-09-26T17:12:44.048Z,39.40
2017-09-26T17:15:10.098Z,36.80
2017-09-26T17:17:36.100Z,36.10
2017-09-26T17:20:02.308Z,40.75
2017-09-26T17:22:28.322Z,38.72
2017-09-26T17:24:54.360Z,37.57
2017-09-26T17:27:20.418Z,37.97
2017-09-26T17:29:47.186Z,36.57
2017-09-26T17:32:13.189Z,40.60
2017-09-26T17:34:40.019Z,39.45
2017-09-26T17:37:06.812Z,40.27
2017-09-26T17:39:33.730Z,39.53
2017-09-26T17:41:59.763Z,39.53
2017-09-26T17:44:25.770Z,40.75
2017-09-26T17:46:51.841Z,39.75
2017-09-26T17:49:17.915Z,38.55
2017-09-26T17:51:44.146Z,37.72
2017-09-26T17:54:10.194Z,39.30
2017-09-26T17:56:36.208Z,39.75
2017-09-26T17:59:02.212Z,38.50
2017-09-26T18:01:28.538Z,40.00
2017-09-26T18:03:54.630Z,39.80
2017-09-26T18:06:21.453Z,39.83
2017-09-26T18:08:47.507Z,40.75
2017-09-26T18:11:13.783Z,41.00
2017-09-26T18:13:39.846Z,38.75
2017-09-26T18:16:06.695Z,38.58
2017-09-26T18:18:33.121Z,42.27
2017-09-26T18:20:59.930Z,39.23
2017-09-26T18:23:26.035Z,38.33
2017-09-26T18:25:52.516Z,39.25
2017-09-26T18:28:19.342Z,35.22
2017-09-26T18:30:46.168Z,38.80
2017-09-26T18:33:12.197Z,34.95
2017-09-26T18:35:38.738Z,37.97
2017-09-26T18:38:05.573Z,36.47
2017-09-26T18:40:32.406Z,40.40
2017-09-26T18:42:58.512Z,36.38
2017-09-26T18:45:24.593Z,41.90
2017-09-26T18:47:50.672Z,39.78
2017-09-26T18:50:16.818Z,38.47
2017-09-26T18:52:43.660Z,40.20
2017-09-26T18:55:10.476Z,37.83
2017-09-26T18:57:36.536Z,36.65
2017-09-26T19:00:03.370Z,38.40
2017-09-26T19:02:30.168Z,40.53
2017-09-26T19:04:56.352Z,38.08
2017-09-26T19:07:22.422Z,40.03
2017-09-26T19:09:49.242Z,38.20
2017-09-26T19:12:15.397Z,38.25
2017-09-26T19:14:41.409Z,42.37
2017-09-26T19:17:07.497Z,41.67
2017-09-26T19:19:33.605Z,42.35
2017-09-26T19:21:59.718Z,43.35
2017-09-26T19:24:25.820Z,38.17
2017-09-26T19:26:51.840Z,42.80
2017-09-26T19:29:18.113Z,42.40
2017-09-26T19:31:44.160Z,43.47
2017-09-26T19:34:10.206Z,45.38
2017-09-26T19:36:37.966Z,43.15
2017-09-26T19:39:04.102Z,39.08
2017-09-26T19:41:30.891Z,43.38
2017-09-26T19:43:56.924Z,48.17
2017-09-26T19:46:22.988Z,45.23
2017-09-26T19:48:49.826Z,42.75
2017-09-26T19:51:16.180Z,44.25
2017-09-26T19:53:42.962Z,44.25
2017-09-26T19:56:09.062Z,44.50
2017-09-26T19:58:35.169Z,43.53
2017-09-26T20:01:01.173Z,45.78
2017-09-26T20:03:27.540Z,44.38
2017-09-26T20:05:53.910Z,44.75
2017-09-26T20:08:19.991Z,46.55
2017-09-26T20:10:46.061Z,45.57
2017-09-26T20:13:12.183Z,46.47
2017-09-26T20:15:38.265Z,45.20
2017-09-26T20:18:04.347Z,47.80
2017-09-26T20:20:31.249Z,50.55
2017-09-26T20:22:57.258Z,49.28
2017-09-26T20:25:23.293Z,46.30
2017-09-26T20:27:49.336Z,47.55
2017-09-26T20:30:15.353Z,47.62
2017-09-26T20:32:41.361Z,51.78
2017-09-26T20:35:07.389Z,47.78
2017-09-26T20:37:33.397Z,48.35
2017-09-26T20:39:59.413Z,51.72
2017-09-26T20:42:25.609Z,48.92
2017-09-26T20:44:51.625Z,48.05
2017-09-26T20:47:18.382Z,49.43
2017-09-26T20:49:44.804Z,50.67
2017-09-26T20:52:10.813Z,52.88
2017-09-26T20:54:37.560Z,51.08
2017-09-26T20:57:03.609Z,55.17
2017-09-26T20:59:29.617Z,54.22
2017-09-26T21:01:55.645Z,52.30
2017-09-26T21:04:21.920Z,52.72
2017-09-26T21:06:47.920Z,53.83
2017-09-26T21:09:14.314Z,55.35
2017-09-26T21:11:40.313Z,50.63
2017-09-26T21:14:07.113Z,50.88
2017-09-26T21:16:33.216Z,54.17
2017-09-26T21:18:59.219Z,53.00
2017-09-26T21:21:25.231Z,51.13
2017-09-26T21:23:52.029Z,57.87
2017-09-26T21:26:18.057Z,53.78
2017-09-26T21:28:44.825Z,57.53
2017-09-26T21:31:11.579Z,54.97
2017-09-26T21:33:37.587Z,55.00
2017-09-26T21:36:04.358Z,56.83
2017-09-26T21:38:30.378Z,55.42
2017-09-26T21:40:56.382Z,54.83
2017-09-26T21:43:22.372Z,55.20
2017-09-26T21:45:48.416Z,56.20
2017-09-26T21:48:15.190Z,60.00
2017-09-26T21:50:41.249Z,57.10
2017-09-26T21:53:07.249Z,58.08
2017-09-26T21:55:33.264Z,61.00
2017-09-26T21:57:59.371Z,135.05
2017-09-26T22:00:25.373Z,136.62
2017-09-26T22:02:51.378Z,119.37
2017-09-26T22:05:18.168Z,228.85
2017-09-26T22:07:44.168Z,149.77
2017-09-26T22:10:10.179Z,123.38
2017-09-26T22:12:36.181Z,165.37
2017-09-26T22:15:02.964Z,163.50
2017-09-26T22:17:28.963Z,153.65
2017-09-26T22:19:54.977Z,141.88
2017-09-26T22:22:21.301Z,116.50
2017-09-26T22:24:48.293Z,64.40
2017-09-26T22:27:14.298Z,56.08
2017-09-26T22:29:40.353Z,54.78
2017-09-26T22:32:06.370Z,57.00
2017-09-26T22:34:32.369Z,60.88
2017-09-26T22:36:58.652Z,60.05
2017-09-26T22:39:25.389Z,56.17
2017-09-26T22:41:52.159Z,61.33
2017-09-26T22:44:18.181Z,57.97
2017-09-26T22:46:44.188Z,58.30
2017-09-26T22:49:10.180Z,60.30
2017-09-26T22:51:36.195Z,56.50
2017-09-26T22:54:02.228Z,64.07
2017-09-26T22:56:28.982Z,60.67
2017-09-26T22:58:55.037Z,61.40
2017-09-26T23:01:21.057Z,60.85
2017-09-26T23:03:47.079Z,60.10
2017-09-26T23:06:13.230Z,58.53
2017-09-26T23:08:39.224Z,57.62
2017-09-26T23:11:05.245Z,60.58
2017-09-26T23:13:38.205Z,58.93
2017-09-26T23:16:04.220Z,63.63
2017-09-26T23:18:30.970Z,59.70
2017-09-26T23:20:57.169Z,57.75
2017-09-26T23:23:23.916Z,59.10
2017-09-26T23:25:50.916Z,59.03
2017-09-26T23:28:17.193Z,56.63
2017-09-26T23:30:43.934Z,62.40
2017-09-26T23:33:10.701Z,62.58
2017-09-26T23:35:36.905Z,56.95
2017-09-26T23:38:02.910Z,55.33
2017-09-26T23:40:29.640Z,55.80
2017-09-26T23:42:55.680Z,54.45
2017-09-26T23:45:22.428Z,53.05
2017-09-26T23:47:48.429Z,52.75
2017-09-26T23:50:15.882Z,53.13
2017-09-26T23:52:41.926Z,54.70
2017-09-26T23:55:07.941Z,56.37
2017-09-26T23:57:34.730Z,55.38
